sensor_id;sensor_type;location;lat;lon;timestamp;P1;durP1;ratioP1;P2;durP2;ratioP2
57303;SDS011;43150;50.986;18.208;2023-03-12T00:01:47;5.70;;;3.80;;
57303;SDS011;43150;50.986;18.208;2023-03-12T00:04:13;8.90;;;5.10;;
57303;SDS011;43150;50.986;18.208;2023-03-12T00:06:38;8.20;;;4.40;;
57303;SDS011;43150;50.986;18.208;2023-03-12T00:09:04;8.00;;;4.80;;
57303;SDS011;43150;50.986;18.208;2023-03-12T00:11:30;10.00;;;5.50;;
57303;SDS011;43150;50.986;18.208;2023-03-12T00:13:58;7.80;;;4.20;;
57303;SDS011;43150;50.986;18.208;2023-03-12T00:16:26;11.90;;;5.80;;
57303;SDS011;43150;50.986;18.208;2023-03-12T00:18:53;13.20;;;8.40;;
57303;SDS011;43150;50.986;18.208;2023-03-12T00:21:19;12.90;;;7.50;;
57303;SDS011;43150;50.986;18.208;2023-03-12T00:23:46;9.90;;;6.90;;
57303;SDS011;43150;50.986;18.208;2023-03-12T00:26:12;9.80;;;6.50;;
57303;SDS011;43150;50.986;18.208;2023-03-12T00:28:38;6.70;;;4.80;;
57303;SDS011;43150;50.986;18.208;2023-03-12T00:31:12;9.00;;;5.10;;
57303;SDS011;43150;50.986;18.208;2023-03-12T00:33:38;11.00;;;7.10;;
57303;SDS011;43150;50.986;18.208;2023-03-12T00:36:04;8.10;;;4.50;;
57303;SDS011;43150;50.986;18.208;2023-03-12T00:38:30;7.60;;;4.50;;
57303;SDS011;43150;50.986;18.208;2023-03-12T00:40:55;8.70;;;4.50;;
57303;SDS011;43150;50.986;18.208;2023-03-12T00:43:21;13.00;;;6.10;;
57303;SDS011;43150;50.986;18.208;2023-03-12T00:45:47;12.40;;;6.40;;
57303;SDS011;43150;50.986;18.208;2023-03-12T00:48:15;8.70;;;4.30;;
57303;SDS011;43150;50.986;18.208;2023-03-12T00:50:40;13.80;;;7.00;;
57303;SDS011;43150;50.986;18.208;2023-03-12T00:53:06;9.60;;;4.80;;
57303;SDS011;43150;50.986;18.208;2023-03-12T00:55:31;11.10;;;6.10;;
57303;SDS011;43150;50.986;18.208;2023-03-12T00:57:57;9.80;;;5.20;;
57303;SDS011;43150;50.986;18.208;2023-03-12T01:00:22;10.00;;;5.30;;
57303;SDS011;43150;50.986;18.208;2023-03-12T01:02:48;14.00;;;5.70;;
57303;SDS011;43150;50.986;18.208;2023-03-12T01:05:14;10.50;;;5.30;;
57303;SDS011;43150;50.986;18.208;2023-03-12T01:07:40;8.70;;;4.50;;
57303;SDS011;43150;50.986;18.208;2023-03-12T01:10:06;8.90;;;4.60;;
57303;SDS011;43150;50.986;18.208;2023-03-12T01:12:32;8.20;;;4.60;;
57303;SDS011;43150;50.986;18.208;2023-03-12T01:14:58;8.70;;;4.20;;
57303;SDS011;43150;50.986;18.208;2023-03-12T01:17:23;5.80;;;3.20;;
57303;SDS011;43150;50.986;18.208;2023-03-12T01:19:49;8.40;;;4.90;;
57303;SDS011;43150;50.986;18.208;2023-03-12T01:22:14;10.50;;;4.60;;
57303;SDS011;43150;50.986;18.208;2023-03-12T01:24:40;10.70;;;6.00;;
57303;SDS011;43150;50.986;18.208;2023-03-12T01:27:05;6.00;;;4.10;;
57303;SDS011;43150;50.986;18.208;2023-03-12T01:29:31;11.20;;;5.20;;
57303;SDS011;43150;50.986;18.208;2023-03-12T01:31:56;5.00;;;3.40;;
57303;SDS011;43150;50.986;18.208;2023-03-12T01:34:22;7.80;;;4.00;;
57303;SDS011;43150;50.986;18.208;2023-03-12T01:36:47;9.70;;;4.80;;
57303;SDS011;43150;50.986;18.208;2023-03-12T01:39:13;8.40;;;4.40;;
57303;SDS011;43150;50.986;18.208;2023-03-12T01:41:42;9.70;;;5.80;;
57303;SDS011;43150;50.986;18.208;2023-03-12T01:44:10;11.40;;;6.70;;
57303;SDS011;43150;50.986;18.208;2023-03-12T01:46:38;9.50;;;5.40;;
57303;SDS011;43150;50.986;18.208;2023-03-12T01:49:13;10.70;;;5.50;;
57303;SDS011;43150;50.986;18.208;2023-03-12T01:51:48;8.10;;;4.60;;
57303;SDS011;43150;50.986;18.208;2023-03-12T01:54:26;8.80;;;4.10;;
57303;SDS011;43150;50.986;18.208;2023-03-12T01:56:54;8.90;;;4.60;;
57303;SDS011;43150;50.986;18.208;2023-03-12T01:59:30;11.40;;;5.70;;
57303;SDS011;43150;50.986;18.208;2023-03-12T02:01:57;12.20;;;5.70;;
57303;SDS011;43150;50.986;18.208;2023-03-12T02:04:23;10.60;;;5.70;;
57303;SDS011;43150;50.986;18.208;2023-03-12T02:09:21;9.90;;;5.00;;
57303;SDS011;43150;50.986;18.208;2023-03-12T02:11:47;13.10;;;6.40;;
57303;SDS011;43150;50.986;18.208;2023-03-12T02:14:13;7.80;;;3.70;;
57303;SDS011;43150;50.986;18.208;2023-03-12T02:16:39;9.00;;;5.40;;
57303;SDS011;43150;50.986;18.208;2023-03-12T02:19:05;10.00;;;6.10;;
57303;SDS011;43150;50.986;18.208;2023-03-12T02:21:35;13.20;;;7.90;;
57303;SDS011;43150;50.986;18.208;2023-03-12T02:26:40;8.90;;;6.20;;
57303;SDS011;43150;50.986;18.208;2023-03-12T02:29:06;10.80;;;7.00;;
57303;SDS011;43150;50.986;18.208;2023-03-12T02:31:34;11.30;;;7.00;;
57303;SDS011;43150;50.986;18.208;2023-03-12T02:34:02;10.00;;;6.50;;
57303;SDS011;43150;50.986;18.208;2023-03-12T02:36:28;8.70;;;5.90;;
57303;SDS011;43150;50.986;18.208;2023-03-12T02:38:53;11.80;;;7.70;;
57303;SDS011;43150;50.986;18.208;2023-03-12T02:41:28;13.50;;;7.40;;
57303;SDS011;43150;50.986;18.208;2023-03-12T02:46:26;11.50;;;6.80;;
57303;SDS011;43150;50.986;18.208;2023-03-12T02:48:52;6.90;;;4.90;;
57303;SDS011;43150;50.986;18.208;2023-03-12T02:51:18;9.60;;;5.90;;
57303;SDS011;43150;50.986;18.208;2023-03-12T02:53:43;12.00;;;8.00;;
57303;SDS011;43150;50.986;18.208;2023-03-12T02:56:09;13.50;;;9.00;;
57303;SDS011;43150;50.986;18.208;2023-03-12T02:58:35;12.30;;;6.50;;
57303;SDS011;43150;50.986;18.208;2023-03-12T03:01:01;10.90;;;6.60;;
57303;SDS011;43150;50.986;18.208;2023-03-12T03:03:27;7.20;;;4.50;;
57303;SDS011;43150;50.986;18.208;2023-03-12T03:05:57;7.20;;;4.60;;
57303;SDS011;43150;50.986;18.208;2023-03-12T03:08:26;8.90;;;4.90;;
57303;SDS011;43150;50.986;18.208;2023-03-12T03:10:52;16.30;;;5.60;;
57303;SDS011;43150;50.986;18.208;2023-03-12T03:13:18;9.80;;;5.10;;
57303;SDS011;43150;50.986;18.208;2023-03-12T03:15:44;9.70;;;5.30;;
57303;SDS011;43150;50.986;18.208;2023-03-12T03:18:10;6.50;;;4.80;;
57303;SDS011;43150;50.986;18.208;2023-03-12T03:20:35;7.20;;;4.00;;
57303;SDS011;43150;50.986;18.208;2023-03-12T03:23:01;7.30;;;3.80;;
57303;SDS011;43150;50.986;18.208;2023-03-12T03:25:27;7.20;;;4.30;;
57303;SDS011;43150;50.986;18.208;2023-03-12T03:27:52;9.00;;;5.00;;
57303;SDS011;43150;50.986;18.208;2023-03-12T03:30:18;4.20;;;2.60;;
57303;SDS011;43150;50.986;18.208;2023-03-12T03:32:45;8.20;;;4.80;;
57303;SDS011;43150;50.986;18.208;2023-03-12T03:35:11;8.40;;;3.80;;
57303;SDS011;43150;50.986;18.208;2023-03-12T03:37:40;8.30;;;4.00;;
57303;SDS011;43150;50.986;18.208;2023-03-12T03:40:06;6.40;;;3.10;;
57303;SDS011;43150;50.986;18.208;2023-03-12T03:42:36;6.80;;;4.00;;
57303;SDS011;43150;50.986;18.208;2023-03-12T03:45:01;5.50;;;3.90;;
57303;SDS011;43150;50.986;18.208;2023-03-12T03:47:27;5.20;;;2.70;;
57303;SDS011;43150;50.986;18.208;2023-03-12T03:49:52;7.80;;;4.00;;
57303;SDS011;43150;50.986;18.208;2023-03-12T03:52:19;6.90;;;3.40;;
57303;SDS011;43150;50.986;18.208;2023-03-12T03:54:45;6.30;;;3.30;;
57303;SDS011;43150;50.986;18.208;2023-03-12T03:57:10;10.60;;;3.80;;
57303;SDS011;43150;50.986;18.208;2023-03-12T03:59:36;6.60;;;3.30;;
57303;SDS011;43150;50.986;18.208;2023-03-12T04:02:01;5.90;;;3.70;;
57303;SDS011;43150;50.986;18.208;2023-03-12T04:04:27;4.90;;;3.20;;
57303;SDS011;43150;50.986;18.208;2023-03-12T04:06:53;6.10;;;3.30;;
57303;SDS011;43150;50.986;18.208;2023-03-12T04:09:18;6.90;;;3.30;;
57303;SDS011;43150;50.986;18.208;2023-03-12T04:11:44;9.80;;;2.60;;
57303;SDS011;43150;50.986;18.208;2023-03-12T04:14:09;9.80;;;4.00;;
57303;SDS011;43150;50.986;18.208;2023-03-12T04:16:35;9.50;;;3.70;;
57303;SDS011;43150;50.986;18.208;2023-03-12T04:19:01;5.40;;;2.60;;
57303;SDS011;43150;50.986;18.208;2023-03-12T04:21:26;4.00;;;2.20;;
57303;SDS011;43150;50.986;18.208;2023-03-12T04:23:52;6.20;;;2.80;;
57303;SDS011;43150;50.986;18.208;2023-03-12T04:26:17;5.10;;;3.10;;
57303;SDS011;43150;50.986;18.208;2023-03-12T04:28:43;3.00;;;1.80;;
57303;SDS011;43150;50.986;18.208;2023-03-12T04:31:09;5.80;;;2.70;;
57303;SDS011;43150;50.986;18.208;2023-03-12T04:33:35;4.40;;;2.20;;
57303;SDS011;43150;50.986;18.208;2023-03-12T04:36:02;5.10;;;2.20;;
57303;SDS011;43150;50.986;18.208;2023-03-12T04:38:27;6.60;;;3.40;;
57303;SDS011;43150;50.986;18.208;2023-03-12T04:41:04;4.60;;;2.50;;
57303;SDS011;43150;50.986;18.208;2023-03-12T04:43:31;4.50;;;2.10;;
57303;SDS011;43150;50.986;18.208;2023-03-12T04:45:57;5.00;;;2.60;;
57303;SDS011;43150;50.986;18.208;2023-03-12T04:48:23;3.50;;;2.50;;
57303;SDS011;43150;50.986;18.208;2023-03-12T04:50:49;5.80;;;2.70;;
57303;SDS011;43150;50.986;18.208;2023-03-12T04:53:14;7.90;;;3.30;;
57303;SDS011;43150;50.986;18.208;2023-03-12T04:55:40;5.30;;;3.20;;
57303;SDS011;43150;50.986;18.208;2023-03-12T04:58:06;6.40;;;2.40;;
57303;SDS011;43150;50.986;18.208;2023-03-12T05:00:33;6.90;;;3.10;;
57303;SDS011;43150;50.986;18.208;2023-03-12T05:02:58;7.50;;;2.80;;
57303;SDS011;43150;50.986;18.208;2023-03-12T05:05:24;6.80;;;2.90;;
57303;SDS011;43150;50.986;18.208;2023-03-12T05:07:50;6.90;;;2.90;;
57303;SDS011;43150;50.986;18.208;2023-03-12T05:10:15;6.70;;;3.30;;
57303;SDS011;43150;50.986;18.208;2023-03-12T05:12:41;7.30;;;3.00;;
57303;SDS011;43150;50.986;18.208;2023-03-12T05:15:07;5.90;;;2.70;;
57303;SDS011;43150;50.986;18.208;2023-03-12T05:17:33;5.60;;;2.90;;
57303;SDS011;43150;50.986;18.208;2023-03-12T05:19:58;8.30;;;3.30;;
57303;SDS011;43150;50.986;18.208;2023-03-12T05:22:24;3.80;;;2.50;;
57303;SDS011;43150;50.986;18.208;2023-03-12T05:24:49;5.70;;;3.20;;
57303;SDS011;43150;50.986;18.208;2023-03-12T05:27:15;5.30;;;3.40;;
57303;SDS011;43150;50.986;18.208;2023-03-12T05:29:43;5.30;;;3.00;;
57303;SDS011;43150;50.986;18.208;2023-03-12T05:32:09;2.50;;;1.60;;
57303;SDS011;43150;50.986;18.208;2023-03-12T05:34:34;5.20;;;3.00;;
57303;SDS011;43150;50.986;18.208;2023-03-12T05:37:00;4.60;;;2.40;;
57303;SDS011;43150;50.986;18.208;2023-03-12T05:39:25;4.40;;;2.10;;
57303;SDS011;43150;50.986;18.208;2023-03-12T05:41:51;4.30;;;2.10;;
57303;SDS011;43150;50.986;18.208;2023-03-12T05:44:22;4.00;;;1.80;;
57303;SDS011;43150;50.986;18.208;2023-03-12T05:46:48;4.50;;;2.50;;
57303;SDS011;43150;50.986;18.208;2023-03-12T05:49:14;5.40;;;2.30;;
57303;SDS011;43150;50.986;18.208;2023-03-12T05:51:39;5.20;;;2.20;;
57303;SDS011;43150;50.986;18.208;2023-03-12T05:54:06;6.40;;;1.80;;
57303;SDS011;43150;50.986;18.208;2023-03-12T05:56:31;3.80;;;1.80;;
57303;SDS011;43150;50.986;18.208;2023-03-12T05:58:57;5.90;;;2.50;;
57303;SDS011;43150;50.986;18.208;2023-03-12T06:01:24;3.40;;;1.80;;
57303;SDS011;43150;50.986;18.208;2023-03-12T06:03:49;4.00;;;2.20;;
57303;SDS011;43150;50.986;18.208;2023-03-12T06:06:15;4.10;;;2.10;;
57303;SDS011;43150;50.986;18.208;2023-03-12T06:08:41;5.30;;;2.10;;
57303;SDS011;43150;50.986;18.208;2023-03-12T06:11:08;4.40;;;1.80;;
57303;SDS011;43150;50.986;18.208;2023-03-12T06:13:34;4.40;;;2.20;;
57303;SDS011;43150;50.986;18.208;2023-03-12T06:16:04;4.90;;;1.50;;
57303;SDS011;43150;50.986;18.208;2023-03-12T06:18:32;4.10;;;1.60;;
57303;SDS011;43150;50.986;18.208;2023-03-12T06:21:15;2.40;;;1.30;;
57303;SDS011;43150;50.986;18.208;2023-03-12T06:23:41;4.10;;;1.70;;
57303;SDS011;43150;50.986;18.208;2023-03-12T06:26:07;7.10;;;2.10;;
57303;SDS011;43150;50.986;18.208;2023-03-12T06:28:34;5.20;;;1.80;;
57303;SDS011;43150;50.986;18.208;2023-03-12T06:30:59;6.20;;;2.50;;
57303;SDS011;43150;50.986;18.208;2023-03-12T06:33:26;4.60;;;2.30;;
57303;SDS011;43150;50.986;18.208;2023-03-12T06:35:55;6.60;;;3.00;;
57303;SDS011;43150;50.986;18.208;2023-03-12T06:38:21;6.60;;;3.50;;
57303;SDS011;43150;50.986;18.208;2023-03-12T06:40:53;6.20;;;3.30;;
57303;SDS011;43150;50.986;18.208;2023-03-12T06:43:19;6.50;;;3.30;;
57303;SDS011;43150;50.986;18.208;2023-03-12T06:45:44;5.90;;;3.00;;
57303;SDS011;43150;50.986;18.208;2023-03-12T06:48:10;4.90;;;2.40;;
57303;SDS011;43150;50.986;18.208;2023-03-12T06:50:39;4.10;;;2.50;;
57303;SDS011;43150;50.986;18.208;2023-03-12T06:53:05;3.30;;;2.30;;
57303;SDS011;43150;50.986;18.208;2023-03-12T06:55:30;4.70;;;2.50;;
57303;SDS011;43150;50.986;18.208;2023-03-12T06:57:55;3.50;;;1.10;;
57303;SDS011;43150;50.986;18.208;2023-03-12T07:00:21;6.40;;;1.80;;
57303;SDS011;43150;50.986;18.208;2023-03-12T07:02:47;4.50;;;2.00;;
57303;SDS011;43150;50.986;18.208;2023-03-12T07:05:12;4.50;;;2.40;;
57303;SDS011;43150;50.986;18.208;2023-03-12T07:07:38;4.40;;;2.10;;
57303;SDS011;43150;50.986;18.208;2023-03-12T07:10:04;4.30;;;2.60;;
57303;SDS011;43150;50.986;18.208;2023-03-12T07:12:32;4.70;;;2.00;;
57303;SDS011;43150;50.986;18.208;2023-03-12T07:14:57;4.10;;;2.30;;
57303;SDS011;43150;50.986;18.208;2023-03-12T07:17:23;3.40;;;2.20;;
57303;SDS011;43150;50.986;18.208;2023-03-12T07:19:50;3.90;;;2.70;;
57303;SDS011;43150;50.986;18.208;2023-03-12T07:22:15;4.30;;;2.50;;
57303;SDS011;43150;50.986;18.208;2023-03-12T07:24:41;3.50;;;2.20;;
57303;SDS011;43150;50.986;18.208;2023-03-12T07:27:07;4.90;;;2.40;;
57303;SDS011;43150;50.986;18.208;2023-03-12T07:29:32;3.80;;;2.40;;
57303;SDS011;43150;50.986;18.208;2023-03-12T07:31:58;5.10;;;2.20;;
57303;SDS011;43150;50.986;18.208;2023-03-12T07:34:24;5.00;;;2.10;;
57303;SDS011;43150;50.986;18.208;2023-03-12T07:36:49;4.70;;;2.00;;
57303;SDS011;43150;50.986;18.208;2023-03-12T07:39:15;3.30;;;2.20;;
57303;SDS011;43150;50.986;18.208;2023-03-12T07:41:40;4.00;;;2.40;;
57303;SDS011;43150;50.986;18.208;2023-03-12T07:44:06;4.50;;;2.30;;
57303;SDS011;43150;50.986;18.208;2023-03-12T07:46:32;4.40;;;1.50;;
57303;SDS011;43150;50.986;18.208;2023-03-12T07:48:57;3.40;;;1.50;;
57303;SDS011;43150;50.986;18.208;2023-03-12T07:51:23;4.10;;;1.80;;
57303;SDS011;43150;50.986;18.208;2023-03-12T07:53:49;2.90;;;1.30;;
57303;SDS011;43150;50.986;18.208;2023-03-12T07:56:14;2.80;;;1.30;;
57303;SDS011;43150;50.986;18.208;2023-03-12T07:58:40;2.70;;;1.60;;
57303;SDS011;43150;50.986;18.208;2023-03-12T08:01:05;3.30;;;1.50;;
57303;SDS011;43150;50.986;18.208;2023-03-12T08:03:32;5.10;;;1.60;;
57303;SDS011;43150;50.986;18.208;2023-03-12T08:05:58;2.80;;;1.40;;
57303;SDS011;43150;50.986;18.208;2023-03-12T08:08:24;1.90;;;1.30;;
57303;SDS011;43150;50.986;18.208;2023-03-12T08:10:50;2.10;;;1.20;;
57303;SDS011;43150;50.986;18.208;2023-03-12T08:13:16;3.60;;;1.10;;
57303;SDS011;43150;50.986;18.208;2023-03-12T08:15:42;5.50;;;2.50;;
57303;SDS011;43150;50.986;18.208;2023-03-12T08:18:08;5.00;;;2.30;;
57303;SDS011;43150;50.986;18.208;2023-03-12T08:20:34;4.10;;;2.20;;
57303;SDS011;43150;50.986;18.208;2023-03-12T08:22:59;4.60;;;2.50;;
57303;SDS011;43150;50.986;18.208;2023-03-12T08:25:25;4.20;;;2.00;;
57303;SDS011;43150;50.986;18.208;2023-03-12T08:27:50;4.20;;;2.50;;
57303;SDS011;43150;50.986;18.208;2023-03-12T08:30:16;3.10;;;2.10;;
57303;SDS011;43150;50.986;18.208;2023-03-12T08:32:42;4.90;;;2.60;;
57303;SDS011;43150;50.986;18.208;2023-03-12T08:35:08;3.80;;;2.10;;
57303;SDS011;43150;50.986;18.208;2023-03-12T08:37:36;3.50;;;1.80;;
57303;SDS011;43150;50.986;18.208;2023-03-12T08:40:02;3.70;;;2.00;;
57303;SDS011;43150;50.986;18.208;2023-03-12T08:42:33;3.10;;;2.00;;
57303;SDS011;43150;50.986;18.208;2023-03-12T08:44:59;3.00;;;1.90;;
57303;SDS011;43150;50.986;18.208;2023-03-12T08:47:24;2.90;;;1.70;;
57303;SDS011;43150;50.986;18.208;2023-03-12T08:49:51;4.00;;;1.70;;
57303;SDS011;43150;50.986;18.208;2023-03-12T08:52:17;3.10;;;1.70;;
57303;SDS011;43150;50.986;18.208;2023-03-12T08:54:42;4.50;;;1.70;;
57303;SDS011;43150;50.986;18.208;2023-03-12T08:57:08;2.40;;;1.40;;
57303;SDS011;43150;50.986;18.208;2023-03-12T08:59:37;2.40;;;1.50;;
57303;SDS011;43150;50.986;18.208;2023-03-12T09:02:04;2.50;;;1.70;;
57303;SDS011;43150;50.986;18.208;2023-03-12T09:04:30;3.40;;;1.70;;
57303;SDS011;43150;50.986;18.208;2023-03-12T09:06:55;2.90;;;1.50;;
57303;SDS011;43150;50.986;18.208;2023-03-12T09:09:20;2.40;;;1.50;;
57303;SDS011;43150;50.986;18.208;2023-03-12T09:11:48;2.50;;;1.60;;
57303;SDS011;43150;50.986;18.208;2023-03-12T09:14:14;2.40;;;1.60;;
57303;SDS011;43150;50.986;18.208;2023-03-12T09:16:40;2.20;;;1.50;;
57303;SDS011;43150;50.986;18.208;2023-03-12T09:19:05;2.10;;;1.50;;
57303;SDS011;43150;50.986;18.208;2023-03-12T09:21:31;3.50;;;1.90;;
57303;SDS011;43150;50.986;18.208;2023-03-12T09:23:56;3.20;;;1.80;;
57303;SDS011;43150;50.986;18.208;2023-03-12T09:26:22;3.60;;;1.70;;
57303;SDS011;43150;50.986;18.208;2023-03-12T09:28:48;4.10;;;1.70;;
57303;SDS011;43150;50.986;18.208;2023-03-12T09:31:14;2.90;;;1.50;;
57303;SDS011;43150;50.986;18.208;2023-03-12T09:33:40;3.00;;;1.70;;
57303;SDS011;43150;50.986;18.208;2023-03-12T09:36:06;2.50;;;1.50;;
57303;SDS011;43150;50.986;18.208;2023-03-12T09:38:32;3.90;;;2.00;;
57303;SDS011;43150;50.986;18.208;2023-03-12T09:41:04;3.10;;;1.40;;
57303;SDS011;43150;50.986;18.208;2023-03-12T09:43:40;3.70;;;1.70;;
57303;SDS011;43150;50.986;18.208;2023-03-12T09:46:09;2.80;;;1.60;;
57303;SDS011;43150;50.986;18.208;2023-03-12T09:48:38;3.50;;;1.60;;
57303;SDS011;43150;50.986;18.208;2023-03-12T09:53:40;2.40;;;1.40;;
57303;SDS011;43150;50.986;18.208;2023-03-12T09:56:11;2.80;;;1.40;;
57303;SDS011;43150;50.986;18.208;2023-03-12T09:58:41;2.90;;;1.50;;
57303;SDS011;43150;50.986;18.208;2023-03-12T10:01:16;3.70;;;1.90;;
57303;SDS011;43150;50.986;18.208;2023-03-12T10:06:22;4.40;;;2.00;;
57303;SDS011;43150;50.986;18.208;2023-03-12T10:11:51;2.90;;;1.90;;
57303;SDS011;43150;50.986;18.208;2023-03-12T10:22:04;2.60;;;1.60;;
57303;SDS011;43150;50.986;18.208;2023-03-12T10:27:17;3.90;;;1.80;;
57303;SDS011;43150;50.986;18.208;2023-03-12T10:29:43;3.20;;;1.60;;
57303;SDS011;43150;50.986;18.208;2023-03-12T10:34:55;2.50;;;1.60;;
57303;SDS011;43150;50.986;18.208;2023-03-12T10:37:38;2.80;;;1.60;;
57303;SDS011;43150;50.986;18.208;2023-03-12T10:40:12;3.70;;;1.70;;
57303;SDS011;43150;50.986;18.208;2023-03-12T10:42:38;2.90;;;1.70;;
57303;SDS011;43150;50.986;18.208;2023-03-12T10:47:38;4.30;;;1.60;;
57303;SDS011;43150;50.986;18.208;2023-03-12T10:52:39;3.10;;;1.50;;
57303;SDS011;43150;50.986;18.208;2023-03-12T10:55:15;4.10;;;1.60;;
57303;SDS011;43150;50.986;18.208;2023-03-12T10:57:45;2.20;;;1.70;;
57303;SDS011;43150;50.986;18.208;2023-03-12T11:00:18;2.80;;;1.80;;
57303;SDS011;43150;50.986;18.208;2023-03-12T11:02:45;3.40;;;1.70;;
57303;SDS011;43150;50.986;18.208;2023-03-12T11:05:30;2.70;;;1.50;;
57303;SDS011;43150;50.986;18.208;2023-03-12T11:07:57;3.00;;;1.60;;
57303;SDS011;43150;50.986;18.208;2023-03-12T11:10:45;3.10;;;1.40;;
57303;SDS011;43150;50.986;18.208;2023-03-12T11:16:00;3.00;;;1.60;;
57303;SDS011;43150;50.986;18.208;2023-03-12T11:18:27;2.40;;;1.50;;
57303;SDS011;43150;50.986;18.208;2023-03-12T11:23:35;3.40;;;1.90;;
57303;SDS011;43150;50.986;18.208;2023-03-12T11:26:10;3.30;;;1.90;;
57303;SDS011;43150;50.986;18.208;2023-03-12T11:28:37;4.00;;;1.90;;
57303;SDS011;43150;50.986;18.208;2023-03-12T11:31:14;3.40;;;1.70;;
57303;SDS011;43150;50.986;18.208;2023-03-12T11:33:41;3.80;;;2.00;;
57303;SDS011;43150;50.986;18.208;2023-03-12T11:38:47;2.60;;;1.40;;
57303;SDS011;43150;50.986;18.208;2023-03-12T11:41:27;2.60;;;1.50;;
57303;SDS011;43150;50.986;18.208;2023-03-12T11:46:31;2.80;;;1.60;;
57303;SDS011;43150;50.986;18.208;2023-03-12T11:57:01;3.20;;;1.30;;
57303;SDS011;43150;50.986;18.208;2023-03-12T11:59:45;3.60;;;1.60;;
57303;SDS011;43150;50.986;18.208;2023-03-12T12:25:24;3.80;;;1.50;;
57303;SDS011;43150;50.986;18.208;2023-03-12T12:28:12;4.10;;;1.90;;
57303;SDS011;43150;50.986;18.208;2023-03-12T12:33:32;2.80;;;1.40;;
57303;SDS011;43150;50.986;18.208;2023-03-12T12:35:59;2.10;;;1.30;;
57303;SDS011;43150;50.986;18.208;2023-03-12T12:38:32;3.30;;;1.60;;
57303;SDS011;43150;50.986;18.208;2023-03-12T12:43:38;3.70;;;1.60;;
57303;SDS011;43150;50.986;18.208;2023-03-12T12:48:43;3.90;;;1.60;;
57303;SDS011;43150;50.986;18.208;2023-03-12T12:51:10;1.90;;;1.40;;
57303;SDS011;43150;50.986;18.208;2023-03-12T12:59:04;2.70;;;1.40;;
57303;SDS011;43150;50.986;18.208;2023-03-12T13:01:33;2.90;;;1.40;;
57303;SDS011;43150;50.986;18.208;2023-03-12T13:04:09;5.20;;;1.90;;
57303;SDS011;43150;50.986;18.208;2023-03-12T13:09:40;3.60;;;1.80;;
57303;SDS011;43150;50.986;18.208;2023-03-12T13:14:52;3.50;;;1.70;;
57303;SDS011;43150;50.986;18.208;2023-03-12T13:22:44;4.30;;;1.80;;
57303;SDS011;43150;50.986;18.208;2023-03-12T13:27:43;3.70;;;2.10;;
57303;SDS011;43150;50.986;18.208;2023-03-12T13:45:54;4.30;;;2.20;;
57303;SDS011;43150;50.986;18.208;2023-03-12T13:48:22;4.70;;;2.20;;
57303;SDS011;43150;50.986;18.208;2023-03-12T13:50:50;6.10;;;3.00;;
57303;SDS011;43150;50.986;18.208;2023-03-12T13:53:20;3.90;;;2.10;;
57303;SDS011;43150;50.986;18.208;2023-03-12T13:55:48;4.60;;;2.40;;
57303;SDS011;43150;50.986;18.208;2023-03-12T13:58:15;5.00;;;2.80;;
57303;SDS011;43150;50.986;18.208;2023-03-12T14:00:50;4.70;;;2.70;;
57303;SDS011;43150;50.986;18.208;2023-03-12T14:03:18;4.20;;;2.10;;
57303;SDS011;43150;50.986;18.208;2023-03-12T14:05:56;3.90;;;2.50;;
57303;SDS011;43150;50.986;18.208;2023-03-12T14:08:56;4.90;;;2.10;;
57303;SDS011;43150;50.986;18.208;2023-03-12T14:16:39;4.10;;;2.50;;
57303;SDS011;43150;50.986;18.208;2023-03-12T14:19:08;4.60;;;2.10;;
57303;SDS011;43150;50.986;18.208;2023-03-12T14:21:37;5.40;;;2.10;;
57303;SDS011;43150;50.986;18.208;2023-03-12T14:24:04;3.10;;;1.50;;
57303;SDS011;43150;50.986;18.208;2023-03-12T14:26:31;3.40;;;1.50;;
57303;SDS011;43150;50.986;18.208;2023-03-12T14:28:59;4.90;;;2.20;;
57303;SDS011;43150;50.986;18.208;2023-03-12T14:31:25;4.50;;;2.10;;
57303;SDS011;43150;50.986;18.208;2023-03-12T14:34:07;4.20;;;2.00;;
57303;SDS011;43150;50.986;18.208;2023-03-12T14:36:37;2.90;;;1.80;;
57303;SDS011;43150;50.986;18.208;2023-03-12T14:39:27;4.10;;;2.00;;
57303;SDS011;43150;50.986;18.208;2023-03-12T14:42:01;4.20;;;1.90;;
57303;SDS011;43150;50.986;18.208;2023-03-12T14:44:31;6.10;;;2.40;;
57303;SDS011;43150;50.986;18.208;2023-03-12T14:47:01;4.80;;;1.80;;
57303;SDS011;43150;50.986;18.208;2023-03-12T14:49:28;4.40;;;2.20;;
57303;SDS011;43150;50.986;18.208;2023-03-12T14:51:57;3.00;;;1.60;;
57303;SDS011;43150;50.986;18.208;2023-03-12T14:54:24;6.10;;;1.90;;
57303;SDS011;43150;50.986;18.208;2023-03-12T14:56:49;4.90;;;2.60;;
57303;SDS011;43150;50.986;18.208;2023-03-12T14:59:28;4.70;;;1.40;;
57303;SDS011;43150;50.986;18.208;2023-03-12T15:02:03;2.70;;;1.40;;
57303;SDS011;43150;50.986;18.208;2023-03-12T15:04:34;3.20;;;1.80;;
57303;SDS011;43150;50.986;18.208;2023-03-12T15:07:00;4.00;;;2.10;;
57303;SDS011;43150;50.986;18.208;2023-03-12T15:09:29;3.90;;;1.30;;
57303;SDS011;43150;50.986;18.208;2023-03-12T15:11:59;3.50;;;2.00;;
57303;SDS011;43150;50.986;18.208;2023-03-12T15:14:37;5.60;;;2.70;;
57303;SDS011;43150;50.986;18.208;2023-03-12T15:17:04;4.10;;;1.60;;
57303;SDS011;43150;50.986;18.208;2023-03-12T15:19:36;3.80;;;1.70;;
57303;SDS011;43150;50.986;18.208;2023-03-12T15:22:06;4.40;;;2.30;;
57303;SDS011;43150;50.986;18.208;2023-03-12T15:24:36;3.70;;;1.60;;
57303;SDS011;43150;50.986;18.208;2023-03-12T15:29:47;7.70;;;3.80;;
57303;SDS011;43150;50.986;18.208;2023-03-12T15:32:14;5.90;;;2.90;;
57303;SDS011;43150;50.986;18.208;2023-03-12T15:34:40;10.60;;;4.00;;
57303;SDS011;43150;50.986;18.208;2023-03-12T15:39:56;8.40;;;3.10;;
57303;SDS011;43150;50.986;18.208;2023-03-12T15:42:23;7.40;;;3.20;;
57303;SDS011;43150;50.986;18.208;2023-03-12T15:47:28;6.40;;;3.00;;
57303;SDS011;43150;50.986;18.208;2023-03-12T15:50:02;9.10;;;4.60;;
57303;SDS011;43150;50.986;18.208;2023-03-12T15:52:32;18.60;;;6.80;;
57303;SDS011;43150;50.986;18.208;2023-03-12T15:58:21;16.20;;;7.20;;
57303;SDS011;43150;50.986;18.208;2023-03-12T16:00:43;16.40;;;7.20;;
57303;SDS011;43150;50.986;18.208;2023-03-12T16:03:15;12.90;;;6.00;;
57303;SDS011;43150;50.986;18.208;2023-03-12T16:05:42;15.10;;;5.10;;
57303;SDS011;43150;50.986;18.208;2023-03-12T16:10:54;10.10;;;5.20;;
57303;SDS011;43150;50.986;18.208;2023-03-12T16:13:26;17.60;;;6.40;;
57303;SDS011;43150;50.986;18.208;2023-03-12T16:15:55;19.90;;;7.40;;
57303;SDS011;43150;50.986;18.208;2023-03-12T16:18:21;13.90;;;5.80;;
57303;SDS011;43150;50.986;18.208;2023-03-12T16:20:48;17.00;;;7.20;;
57303;SDS011;43150;50.986;18.208;2023-03-12T16:23:15;32.20;;;11.30;;
57303;SDS011;43150;50.986;18.208;2023-03-12T16:25:41;24.50;;;9.30;;
57303;SDS011;43150;50.986;18.208;2023-03-12T16:28:09;22.10;;;8.70;;
57303;SDS011;43150;50.986;18.208;2023-03-12T16:30:37;17.70;;;6.90;;
57303;SDS011;43150;50.986;18.208;2023-03-12T16:33:03;19.30;;;7.80;;
57303;SDS011;43150;50.986;18.208;2023-03-12T16:35:29;38.70;;;18.10;;
57303;SDS011;43150;50.986;18.208;2023-03-12T16:38:01;20.50;;;10.30;;
57303;SDS011;43150;50.986;18.208;2023-03-12T16:40:31;29.30;;;12.30;;
57303;SDS011;43150;50.986;18.208;2023-03-12T16:42:58;25.70;;;11.60;;
57303;SDS011;43150;50.986;18.208;2023-03-12T16:45:26;33.40;;;14.90;;
57303;SDS011;43150;50.986;18.208;2023-03-12T16:47:53;36.00;;;16.70;;
57303;SDS011;43150;50.986;18.208;2023-03-12T16:50:20;32.60;;;17.50;;
57303;SDS011;43150;50.986;18.208;2023-03-12T16:52:47;24.20;;;11.80;;